San Juan, PR (00901)

4:37 AM AST on August 20, 2014 (GMT -0400)
Condado, Calle Earle, At The Ocean | Change Station
CLOSE
Current Station
Personal Weather Station
Location: San Juan, SAN JUAN
Elevation: 10 ft
Nearby Weather Stations

Elev 10 ft 18.46 °N, 66.07 °W | Updated 8 seconds ago

Light Rain
Light Rain
76.9 °F
Feels Like 78 °F
N
2.0
Wind Variable Wind from NE
Gusts 4.0 mph

Today
High -- | Low -- °F
--% Chance of Precip.
Yesterday
High -- | Low -- °F
Precip. -- in
6:07 AM 6:47 PM
Waning Crescent, 23% visible
Pressure 29.97 in
Visibility 10.0 miles
Clouds Few 3100 ft
Mostly Cloudy 7000 ft
Heat Index 78 °F
Dew Point 74 °F
Humidity 90%
Rainfall 0.49 in
Snow Depth Not available.
UV 0 out of 12
Pollen Not available.
Air Quality Not available.
Flu Activity Not available.
METAR TJSJ 200756Z 00000KT 10SM -RA FEW031 BKN070 25/24 A2997 RMK AO2 TSB15E55 SLP149 TS DISPD FRQ LTGICCG DSNT NW CB DSNT NW P0014 T02500239

More Conditions Fewer Conditions

Pressure 29.97 in
Visibility 10.0 miles
Clouds Few 3100 ft
Mostly Cloudy 7000 ft
Heat Index 78 °F
Dew Point 74 °F
Humidity 90%
Rainfall 0.49 in
Snow Depth Not available.
UV 0 out of 12
Pollen Not available.
Air Quality Not available.
Flu Activity Not available.
METAR TJSJ 200756Z 00000KT 10SM -RA FEW031 BKN070 25/24 A2997 RMK AO2 TSB15E55 SLP149 TS DISPD FRQ LTGICCG DSNT NW CB DSNT NW P0014 T02500239

More Conditions Fewer Conditions

Nowcast | as of 1:05 am AST on August 20, 2014

Showers with thunderstorms will continue to move inland affecting portions of the northern half of the island during the next three hours or so. Therefore...locally heavy rain...strong gusty winds... frequent lightning...ponding of water on roadways...reduced visibilities and hazardous driving conditions are expected as these storms pass by.

×

10-Day Weather Forecast

Almanac

Astronomy

Aug. 20, 2014 Rise Set
Actual Time 6:07 AM AST 6:47 PM AST
Civil Twilight 5:44 AM AST 7:10 PM AST
Nautical Twilight 5:18 AM AST 7:36 PM AST
Astronomical Twilight 4:51 AM AST 8:03 PM AST
Moon 1:58 AM AST 3:15 PM AST
Length of Visible Light 13h 25m
Length of Day
12h 40m
Tomorrow will be 0m 56s shorter.
Waning Crescent, 23% of the Moon is Illuminated
Today
Waning Crescent
Aug 25
New
Sep 2
First Quarter
Sep 8
Full
Sep 15
Last Quarter

Community

WunderPhotos

Upload Photos

1,745,601 photos uploaded!

Nearby

Snow Depth

Station Depth Elevation
No new snow has been reported.

Earthquake Activity

City Distance Mag. Time & Date
No recent earthquake activity has been reported nearby.
Minimum magnitude displayed is 2.5.

Coastal Water Temperatures

Place Temperature
San Juan, PR 84.9 °F
Mayaguez, PR 84.9 °F
Esperanza, PR 84.0 °F

Nearby Weather Stations